sensor_id;sensor_type;location;lat;lon;timestamp;temperature;humidity
53802;DHT22;39709;53.334;6.534;2022-08-25T00:02:14;22.20;1.00
53802;DHT22;39709;53.334;6.534;2022-08-25T00:04:40;22.20;1.00
53802;DHT22;39709;53.334;6.534;2022-08-25T00:07:06;22.20;1.00
53802;DHT22;39709;53.334;6.534;2022-08-25T00:09:33;22.10;1.00
53802;DHT22;39709;53.334;6.534;2022-08-25T00:12:00;22.00;1.00
53802;DHT22;39709;53.334;6.534;2022-08-25T00:14:33;22.00;1.00
53802;DHT22;39709;53.334;6.534;2022-08-25T00:17:00;22.00;1.00
53802;DHT22;39709;53.334;6.534;2022-08-25T00:19:29;22.00;1.00
53802;DHT22;39709;53.334;6.534;2022-08-25T00:21:57;21.90;1.00
53802;DHT22;39709;53.334;6.534;2022-08-25T00:24:23;21.90;1.00
53802;DHT22;39709;53.334;6.534;2022-08-25T00:26:51;21.90;1.00
53802;DHT22;39709;53.334;6.534;2022-08-25T00:29:19;21.80;1.00
53802;DHT22;39709;53.334;6.534;2022-08-25T00:31:45;21.80;1.00
53802;DHT22;39709;53.334;6.534;2022-08-25T00:34:16;21.80;1.00
53802;DHT22;39709;53.334;6.534;2022-08-25T00:36:43;21.60;1.00
53802;DHT22;39709;53.334;6.534;2022-08-25T00:39:10;21.60;1.00
53802;DHT22;39709;53.334;6.534;2022-08-25T00:41:38;21.50;1.00
53802;DHT22;39709;53.334;6.534;2022-08-25T00:44:06;21.50;1.00
53802;DHT22;39709;53.334;6.534;2022-08-25T00:46:38;21.40;1.00
53802;DHT22;39709;53.334;6.534;2022-08-25T00:49:24;21.50;1.00
53802;DHT22;39709;53.334;6.534;2022-08-25T00:54:39;21.40;1.00
53802;DHT22;39709;53.334;6.534;2022-08-25T00:57:08;21.30;1.00
53802;DHT22;39709;53.334;6.534;2022-08-25T00:59:35;21.20;1.00
53802;DHT22;39709;53.334;6.534;2022-08-25T01:02:03;21.40;1.00
53802;DHT22;39709;53.334;6.534;2022-08-25T01:04:29;21.30;1.00
53802;DHT22;39709;53.334;6.534;2022-08-25T01:06:55;21.30;1.00
53802;DHT22;39709;53.334;6.534;2022-08-25T01:09:22;21.50;1.00
53802;DHT22;39709;53.334;6.534;2022-08-25T01:11:48;21.40;1.00
53802;DHT22;39709;53.334;6.534;2022-08-25T01:14:17;21.40;1.00
53802;DHT22;39709;53.334;6.534;2022-08-25T01:16:43;21.40;1.00
53802;DHT22;39709;53.334;6.534;2022-08-25T01:19:11;21.50;1.00
53802;DHT22;39709;53.334;6.534;2022-08-25T01:21:47;21.50;1.00
53802;DHT22;39709;53.334;6.534;2022-08-25T01:27:04;21.40;1.00
53802;DHT22;39709;53.334;6.534;2022-08-25T01:29:30;21.30;1.00
53802;DHT22;39709;53.334;6.534;2022-08-25T01:32:02;21.30;1.00
53802;DHT22;39709;53.334;6.534;2022-08-25T01:34:31;21.30;1.00
53802;DHT22;39709;53.334;6.534;2022-08-25T01:36:58;21.20;1.00
53802;DHT22;39709;53.334;6.534;2022-08-25T01:39:25;21.30;1.00
53802;DHT22;39709;53.334;6.534;2022-08-25T01:44:31;21.20;1.00
53802;DHT22;39709;53.334;6.534;2022-08-25T01:47:00;21.10;1.00
53802;DHT22;39709;53.334;6.534;2022-08-25T01:49:26;21.10;1.00
53802;DHT22;39709;53.334;6.534;2022-08-25T01:52:01;21.00;1.00
53802;DHT22;39709;53.334;6.534;2022-08-25T01:54:29;20.80;1.00
53802;DHT22;39709;53.334;6.534;2022-08-25T01:56:57;20.90;1.00
53802;DHT22;39709;53.334;6.534;2022-08-25T01:59:23;20.90;1.00
53802;DHT22;39709;53.334;6.534;2022-08-25T02:01:50;20.90;1.00
53802;DHT22;39709;53.334;6.534;2022-08-25T02:04:16;20.80;1.00
53802;DHT22;39709;53.334;6.534;2022-08-25T02:06:41;20.80;1.00
53802;DHT22;39709;53.334;6.534;2022-08-25T02:09:10;20.70;1.00
53802;DHT22;39709;53.334;6.534;2022-08-25T02:11:38;20.80;1.00
53802;DHT22;39709;53.334;6.534;2022-08-25T02:14:05;20.80;1.00
53802;DHT22;39709;53.334;6.534;2022-08-25T02:16:33;20.70;1.00
53802;DHT22;39709;53.334;6.534;2022-08-25T02:19:00;20.70;1.00
53802;DHT22;39709;53.334;6.534;2022-08-25T02:21:26;20.60;1.00
53802;DHT22;39709;53.334;6.534;2022-08-25T02:23:52;20.40;1.00
53802;DHT22;39709;53.334;6.534;2022-08-25T02:26:18;20.40;1.00
53802;DHT22;39709;53.334;6.534;2022-08-25T02:28:48;20.40;1.00
53802;DHT22;39709;53.334;6.534;2022-08-25T02:31:15;20.50;1.00
53802;DHT22;39709;53.334;6.534;2022-08-25T02:33:41;20.50;1.00
53802;DHT22;39709;53.334;6.534;2022-08-25T02:36:07;20.50;1.00
53802;DHT22;39709;53.334;6.534;2022-08-25T02:38:33;20.50;1.00
53802;DHT22;39709;53.334;6.534;2022-08-25T02:41:00;20.50;1.00
53802;DHT22;39709;53.334;6.534;2022-08-25T02:43:27;20.60;1.00
53802;DHT22;39709;53.334;6.534;2022-08-25T02:45:54;20.60;1.00
53802;DHT22;39709;53.334;6.534;2022-08-25T02:48:21;20.50;1.00
53802;DHT22;39709;53.334;6.534;2022-08-25T02:50:48;20.50;1.00
53802;DHT22;39709;53.334;6.534;2022-08-25T02:53:15;20.50;1.00
53802;DHT22;39709;53.334;6.534;2022-08-25T02:55:41;20.40;1.00
53802;DHT22;39709;53.334;6.534;2022-08-25T02:58:06;20.30;1.00
53802;DHT22;39709;53.334;6.534;2022-08-25T03:00:33;20.40;1.00
53802;DHT22;39709;53.334;6.534;2022-08-25T03:02:59;20.40;1.00
53802;DHT22;39709;53.334;6.534;2022-08-25T03:05:25;20.40;1.00
53802;DHT22;39709;53.334;6.534;2022-08-25T03:07:51;20.40;1.00
53802;DHT22;39709;53.334;6.534;2022-08-25T03:10:18;20.30;1.00
53802;DHT22;39709;53.334;6.534;2022-08-25T03:12:45;20.30;1.00
53802;DHT22;39709;53.334;6.534;2022-08-25T03:15:13;20.30;1.00
53802;DHT22;39709;53.334;6.534;2022-08-25T03:17:44;20.20;1.00
53802;DHT22;39709;53.334;6.534;2022-08-25T03:20:11;20.20;1.00
53802;DHT22;39709;53.334;6.534;2022-08-25T03:22:37;20.20;1.00
53802;DHT22;39709;53.334;6.534;2022-08-25T03:25:04;20.10;1.00
53802;DHT22;39709;53.334;6.534;2022-08-25T03:27:48;20.00;1.00
53802;DHT22;39709;53.334;6.534;2022-08-25T03:30:15;20.00;1.00
53802;DHT22;39709;53.334;6.534;2022-08-25T03:32:41;20.10;1.00
53802;DHT22;39709;53.334;6.534;2022-08-25T03:35:08;20.00;1.00
53802;DHT22;39709;53.334;6.534;2022-08-25T03:37:34;19.90;1.00
53802;DHT22;39709;53.334;6.534;2022-08-25T03:40:01;20.00;1.00
53802;DHT22;39709;53.334;6.534;2022-08-25T03:42:27;20.00;1.00
53802;DHT22;39709;53.334;6.534;2022-08-25T03:44:53;19.90;1.00
53802;DHT22;39709;53.334;6.534;2022-08-25T03:47:19;19.80;1.00
53802;DHT22;39709;53.334;6.534;2022-08-25T03:49:45;19.70;1.00
53802;DHT22;39709;53.334;6.534;2022-08-25T03:52:11;19.70;1.00
53802;DHT22;39709;53.334;6.534;2022-08-25T03:54:36;19.60;1.00
53802;DHT22;39709;53.334;6.534;2022-08-25T03:57:02;19.70;1.00
53802;DHT22;39709;53.334;6.534;2022-08-25T03:59:28;19.70;1.00
53802;DHT22;39709;53.334;6.534;2022-08-25T04:01:54;19.70;1.00
53802;DHT22;39709;53.334;6.534;2022-08-25T04:04:19;19.70;1.00
53802;DHT22;39709;53.334;6.534;2022-08-25T04:06:46;19.70;1.00
53802;DHT22;39709;53.334;6.534;2022-08-25T04:09:12;19.60;1.00
53802;DHT22;39709;53.334;6.534;2022-08-25T04:11:38;19.50;1.00
53802;DHT22;39709;53.334;6.534;2022-08-25T04:14:03;19.50;1.00
53802;DHT22;39709;53.334;6.534;2022-08-25T04:16:32;19.50;1.00
53802;DHT22;39709;53.334;6.534;2022-08-25T04:19:00;19.40;1.00
53802;DHT22;39709;53.334;6.534;2022-08-25T04:21:26;19.40;1.00
53802;DHT22;39709;53.334;6.534;2022-08-25T04:23:53;19.40;1.00
53802;DHT22;39709;53.334;6.534;2022-08-25T04:26:24;19.40;1.00
53802;DHT22;39709;53.334;6.534;2022-08-25T04:28:50;19.40;1.00
53802;DHT22;39709;53.334;6.534;2022-08-25T04:31:18;19.20;1.00
53802;DHT22;39709;53.334;6.534;2022-08-25T04:33:44;19.30;1.00
53802;DHT22;39709;53.334;6.534;2022-08-25T04:36:13;19.20;1.00
53802;DHT22;39709;53.334;6.534;2022-08-25T04:38:41;19.20;1.00
53802;DHT22;39709;53.334;6.534;2022-08-25T04:41:09;19.30;1.00
53802;DHT22;39709;53.334;6.534;2022-08-25T04:43:36;19.30;1.00
53802;DHT22;39709;53.334;6.534;2022-08-25T04:46:08;19.30;1.00
53802;DHT22;39709;53.334;6.534;2022-08-25T04:48:36;19.10;1.00
53802;DHT22;39709;53.334;6.534;2022-08-25T04:51:06;19.00;1.00
53802;DHT22;39709;53.334;6.534;2022-08-25T04:53:33;19.10;1.00
53802;DHT22;39709;53.334;6.534;2022-08-25T04:55:59;19.20;1.00
53802;DHT22;39709;53.334;6.534;2022-08-25T04:58:24;19.30;1.00
53802;DHT22;39709;53.334;6.534;2022-08-25T05:00:50;19.30;1.00
53802;DHT22;39709;53.334;6.534;2022-08-25T05:03:16;19.30;1.00
53802;DHT22;39709;53.334;6.534;2022-08-25T05:05:41;19.30;1.00
53802;DHT22;39709;53.334;6.534;2022-08-25T05:08:07;19.20;1.00
53802;DHT22;39709;53.334;6.534;2022-08-25T05:10:33;19.20;1.00
53802;DHT22;39709;53.334;6.534;2022-08-25T05:12:59;19.30;1.00
53802;DHT22;39709;53.334;6.534;2022-08-25T05:15:25;19.20;1.00
53802;DHT22;39709;53.334;6.534;2022-08-25T05:18:09;19.10;1.00
53802;DHT22;39709;53.334;6.534;2022-08-25T05:20:38;19.10;1.00
53802;DHT22;39709;53.334;6.534;2022-08-25T05:23:04;19.10;1.00
53802;DHT22;39709;53.334;6.534;2022-08-25T05:25:30;19.10;1.00
53802;DHT22;39709;53.334;6.534;2022-08-25T05:27:56;19.20;1.00
53802;DHT22;39709;53.334;6.534;2022-08-25T05:30:22;19.20;1.00
53802;DHT22;39709;53.334;6.534;2022-08-25T05:32:48;19.30;1.00
53802;DHT22;39709;53.334;6.534;2022-08-25T05:35:13;19.30;1.00
53802;DHT22;39709;53.334;6.534;2022-08-25T05:37:40;19.30;1.00
53802;DHT22;39709;53.334;6.534;2022-08-25T05:40:07;19.40;1.00
53802;DHT22;39709;53.334;6.534;2022-08-25T05:42:34;19.40;1.00
53802;DHT22;39709;53.334;6.534;2022-08-25T05:45:00;19.40;1.00
53802;DHT22;39709;53.334;6.534;2022-08-25T05:47:26;19.60;1.00
53802;DHT22;39709;53.334;6.534;2022-08-25T05:49:51;19.70;1.00
53802;DHT22;39709;53.334;6.534;2022-08-25T05:52:17;19.70;1.00
53802;DHT22;39709;53.334;6.534;2022-08-25T05:54:43;19.90;1.00
53802;DHT22;39709;53.334;6.534;2022-08-25T05:57:08;19.90;1.00
53802;DHT22;39709;53.334;6.534;2022-08-25T05:59:34;20.00;1.00
53802;DHT22;39709;53.334;6.534;2022-08-25T06:02:00;20.00;1.00
53802;DHT22;39709;53.334;6.534;2022-08-25T06:04:44;20.10;1.00
53802;DHT22;39709;53.334;6.534;2022-08-25T06:07:10;20.20;1.00
53802;DHT22;39709;53.334;6.534;2022-08-25T06:09:37;20.20;1.00
53802;DHT22;39709;53.334;6.534;2022-08-25T06:12:04;20.30;1.00
53802;DHT22;39709;53.334;6.534;2022-08-25T06:14:30;20.30;1.00
53802;DHT22;39709;53.334;6.534;2022-08-25T06:16:55;20.40;1.00
53802;DHT22;39709;53.334;6.534;2022-08-25T06:19:21;20.40;1.00
53802;DHT22;39709;53.334;6.534;2022-08-25T06:21:48;20.50;1.00
53802;DHT22;39709;53.334;6.534;2022-08-25T06:24:14;20.60;1.00
53802;DHT22;39709;53.334;6.534;2022-08-25T06:26:39;20.50;1.00
53802;DHT22;39709;53.334;6.534;2022-08-25T06:29:05;20.70;1.00
53802;DHT22;39709;53.334;6.534;2022-08-25T06:31:31;20.80;1.00
53802;DHT22;39709;53.334;6.534;2022-08-25T06:33:56;20.70;1.00
53802;DHT22;39709;53.334;6.534;2022-08-25T06:36:23;20.80;1.00
53802;DHT22;39709;53.334;6.534;2022-08-25T06:38:48;20.90;1.00
53802;DHT22;39709;53.334;6.534;2022-08-25T06:41:14;21.10;1.00
53802;DHT22;39709;53.334;6.534;2022-08-25T06:43:41;21.20;1.00
53802;DHT22;39709;53.334;6.534;2022-08-25T06:46:22;21.20;1.00
53802;DHT22;39709;53.334;6.534;2022-08-25T06:48:48;21.30;1.00
53802;DHT22;39709;53.334;6.534;2022-08-25T06:51:17;21.20;1.00
53802;DHT22;39709;53.334;6.534;2022-08-25T06:53:44;21.40;1.00
53802;DHT22;39709;53.334;6.534;2022-08-25T06:56:11;21.40;1.00
53802;DHT22;39709;53.334;6.534;2022-08-25T06:58:37;21.60;1.00
53802;DHT22;39709;53.334;6.534;2022-08-25T07:03:36;21.70;1.00
53802;DHT22;39709;53.334;6.534;2022-08-25T07:06:02;21.80;1.00
53802;DHT22;39709;53.334;6.534;2022-08-25T07:08:28;22.10;1.00
53802;DHT22;39709;53.334;6.534;2022-08-25T07:10:54;22.00;1.00
53802;DHT22;39709;53.334;6.534;2022-08-25T07:13:20;22.20;1.00
53802;DHT22;39709;53.334;6.534;2022-08-25T07:15:45;22.20;1.00
53802;DHT22;39709;53.334;6.534;2022-08-25T07:18:11;22.40;1.00
53802;DHT22;39709;53.334;6.534;2022-08-25T07:20:38;22.40;1.00
53802;DHT22;39709;53.334;6.534;2022-08-25T07:23:05;22.40;1.00
53802;DHT22;39709;53.334;6.534;2022-08-25T07:25:32;22.40;1.00
53802;DHT22;39709;53.334;6.534;2022-08-25T07:27:58;22.50;1.00
53802;DHT22;39709;53.334;6.534;2022-08-25T07:30:24;22.60;1.00
53802;DHT22;39709;53.334;6.534;2022-08-25T07:32:49;22.70;1.00
53802;DHT22;39709;53.334;6.534;2022-08-25T07:35:15;22.80;1.00
53802;DHT22;39709;53.334;6.534;2022-08-25T07:37:47;22.90;1.00
53802;DHT22;39709;53.334;6.534;2022-08-25T07:40:21;23.00;1.00
53802;DHT22;39709;53.334;6.534;2022-08-25T07:42:49;23.10;1.00
53802;DHT22;39709;53.334;6.534;2022-08-25T07:45:15;23.30;1.00
53802;DHT22;39709;53.334;6.534;2022-08-25T07:47:42;23.30;1.00
53802;DHT22;39709;53.334;6.534;2022-08-25T07:50:09;23.40;1.00
53802;DHT22;39709;53.334;6.534;2022-08-25T07:52:37;23.60;1.00
53802;DHT22;39709;53.334;6.534;2022-08-25T07:55:03;23.60;1.00
53802;DHT22;39709;53.334;6.534;2022-08-25T07:57:29;23.60;1.00
53802;DHT22;39709;53.334;6.534;2022-08-25T07:59:55;23.80;1.00
53802;DHT22;39709;53.334;6.534;2022-08-25T08:02:23;23.90;1.00
53802;DHT22;39709;53.334;6.534;2022-08-25T08:04:50;24.00;1.00
53802;DHT22;39709;53.334;6.534;2022-08-25T08:07:21;24.10;1.00
53802;DHT22;39709;53.334;6.534;2022-08-25T08:09:47;24.20;1.00
53802;DHT22;39709;53.334;6.534;2022-08-25T08:12:13;24.30;1.00
53802;DHT22;39709;53.334;6.534;2022-08-25T08:14:38;24.20;1.00
53802;DHT22;39709;53.334;6.534;2022-08-25T08:17:06;24.40;1.00
53802;DHT22;39709;53.334;6.534;2022-08-25T08:19:33;24.50;1.00
53802;DHT22;39709;53.334;6.534;2022-08-25T08:21:59;24.60;1.00
53802;DHT22;39709;53.334;6.534;2022-08-25T08:24:28;24.60;1.00
53802;DHT22;39709;53.334;6.534;2022-08-25T08:26:54;24.70;1.00
53802;DHT22;39709;53.334;6.534;2022-08-25T08:29:20;24.70;1.00
53802;DHT22;39709;53.334;6.534;2022-08-25T08:31:47;24.80;1.00
53802;DHT22;39709;53.334;6.534;2022-08-25T08:34:13;25.00;1.00
53802;DHT22;39709;53.334;6.534;2022-08-25T08:36:39;25.10;1.00
53802;DHT22;39709;53.334;6.534;2022-08-25T08:39:05;25.20;1.00
53802;DHT22;39709;53.334;6.534;2022-08-25T08:53:15;25.80;1.00
53802;DHT22;39709;53.334;6.534;2022-08-25T08:55:48;25.90;1.00
53802;DHT22;39709;53.334;6.534;2022-08-25T08:58:18;26.00;1.00
53802;DHT22;39709;53.334;6.534;2022-08-25T09:00:55;26.00;1.00
53802;DHT22;39709;53.334;6.534;2022-08-25T09:03:41;26.20;1.00
53802;DHT22;39709;53.334;6.534;2022-08-25T09:06:18;26.30;1.00
53802;DHT22;39709;53.334;6.534;2022-08-25T09:08:45;26.40;1.00
53802;DHT22;39709;53.334;6.534;2022-08-25T09:19:58;26.80;1.00
53802;DHT22;39709;53.334;6.534;2022-08-25T09:28:25;27.20;1.00
53802;DHT22;39709;53.334;6.534;2022-08-25T09:31:03;27.30;1.00
53802;DHT22;39709;53.334;6.534;2022-08-25T09:33:32;27.30;1.00
53802;DHT22;39709;53.334;6.534;2022-08-25T09:35:58;27.40;1.00
53802;DHT22;39709;53.334;6.534;2022-08-25T09:38:25;27.50;1.00
53802;DHT22;39709;53.334;6.534;2022-08-25T09:40:55;27.60;1.00
53802;DHT22;39709;53.334;6.534;2022-08-25T09:48:51;27.90;1.00
53802;DHT22;39709;53.334;6.534;2022-08-25T09:51:26;27.90;1.00
53802;DHT22;39709;53.334;6.534;2022-08-25T09:53:56;28.00;1.00
53802;DHT22;39709;53.334;6.534;2022-08-25T09:56:25;28.10;1.00
53802;DHT22;39709;53.334;6.534;2022-08-25T09:58:52;28.20;1.00
53802;DHT22;39709;53.334;6.534;2022-08-25T10:01:20;28.30;1.00
53802;DHT22;39709;53.334;6.534;2022-08-25T10:03:59;28.30;1.00
53802;DHT22;39709;53.334;6.534;2022-08-25T10:06:28;28.40;1.00
53802;DHT22;39709;53.334;6.534;2022-08-25T10:08:58;28.50;99.90
53802;DHT22;39709;53.334;6.534;2022-08-25T10:11:45;28.50;99.90
53802;DHT22;39709;53.334;6.534;2022-08-25T10:14:31;28.60;99.90
53802;DHT22;39709;53.334;6.534;2022-08-25T10:17:27;28.60;99.90
53802;DHT22;39709;53.334;6.534;2022-08-25T10:20:18;28.60;99.90
53802;DHT22;39709;53.334;6.534;2022-08-25T10:22:45;28.60;99.90
53802;DHT22;39709;53.334;6.534;2022-08-25T10:25:15;28.70;99.90
53802;DHT22;39709;53.334;6.534;2022-08-25T10:30:38;28.80;99.90
53802;DHT22;39709;53.334;6.534;2022-08-25T10:35:55;28.90;99.90
53802;DHT22;39709;53.334;6.534;2022-08-25T10:41:33;28.80;99.90
53802;DHT22;39709;53.334;6.534;2022-08-25T10:50:21;28.80;99.90
53802;DHT22;39709;53.334;6.534;2022-08-25T11:01:43;29.00;99.90
53802;DHT22;39709;53.334;6.534;2022-08-25T11:04:27;29.00;99.90
53802;DHT22;39709;53.334;6.534;2022-08-25T11:09:27;29.10;99.90
53802;DHT22;39709;53.334;6.534;2022-08-25T11:12:03;29.00;99.90
53802;DHT22;39709;53.334;6.534;2022-08-25T11:14:53;29.10;99.90
53802;DHT22;39709;53.334;6.534;2022-08-25T11:17:25;29.10;99.90
53802;DHT22;39709;53.334;6.534;2022-08-25T11:19:57;29.20;99.90
53802;DHT22;39709;53.334;6.534;2022-08-25T11:22:33;29.20;99.90
53802;DHT22;39709;53.334;6.534;2022-08-25T11:25:30;29.20;99.90
53802;DHT22;39709;53.334;6.534;2022-08-25T11:28:14;29.30;99.90
53802;DHT22;39709;53.334;6.534;2022-08-25T11:30:41;29.30;99.90
53802;DHT22;39709;53.334;6.534;2022-08-25T11:33:11;29.20;99.90
53802;DHT22;39709;53.334;6.534;2022-08-25T11:35:45;29.20;99.90
53802;DHT22;39709;53.334;6.534;2022-08-25T11:38:47;29.30;99.90
53802;DHT22;39709;53.334;6.534;2022-08-25T11:41:39;29.40;99.90
53802;DHT22;39709;53.334;6.534;2022-08-25T11:44:18;29.50;99.90
53802;DHT22;39709;53.334;6.534;2022-08-25T11:47:16;29.50;99.90
53802;DHT22;39709;53.334;6.534;2022-08-25T11:50:08;29.50;99.90
53802;DHT22;39709;53.334;6.534;2022-08-25T11:52:51;29.50;99.90
53802;DHT22;39709;53.334;6.534;2022-08-25T12:00:54;29.60;99.90
53802;DHT22;39709;53.334;6.534;2022-08-25T12:06:29;29.70;99.90
53802;DHT22;39709;53.334;6.534;2022-08-25T12:11:53;29.60;99.90
53802;DHT22;39709;53.334;6.534;2022-08-25T12:24:45;29.80;99.90
53802;DHT22;39709;53.334;6.534;2022-08-25T12:27:30;29.80;99.90
53802;DHT22;39709;53.334;6.534;2022-08-25T12:30:23;29.80;99.90
53802;DHT22;39709;53.334;6.534;2022-08-25T12:33:30;29.70;99.90
53802;DHT22;39709;53.334;6.534;2022-08-25T12:36:03;29.80;99.90
53802;DHT22;39709;53.334;6.534;2022-08-25T12:38:44;30.00;99.90
53802;DHT22;39709;53.334;6.534;2022-08-25T12:41:13;30.00;99.90
53802;DHT22;39709;53.334;6.534;2022-08-25T12:43:43;30.00;99.90
53802;DHT22;39709;53.334;6.534;2022-08-25T12:51:59;30.10;99.90
53802;DHT22;39709;53.334;6.534;2022-08-25T12:57:22;30.20;99.90
53802;DHT22;39709;53.334;6.534;2022-08-25T12:59:57;30.20;99.90
53802;DHT22;39709;53.334;6.534;2022-08-25T13:11:16;30.10;99.90
53802;DHT22;39709;53.334;6.534;2022-08-25T13:14:00;30.10;99.90
53802;DHT22;39709;53.334;6.534;2022-08-25T13:16:28;30.20;99.90
53802;DHT22;39709;53.334;6.534;2022-08-25T13:18:55;30.20;99.90
53802;DHT22;39709;53.334;6.534;2022-08-25T13:21:26;30.20;99.90
53802;DHT22;39709;53.334;6.534;2022-08-25T13:23:55;30.30;99.90
53802;DHT22;39709;53.334;6.534;2022-08-25T13:26:29;30.40;99.90
53802;DHT22;39709;53.334;6.534;2022-08-25T13:29:19;30.50;99.90
53802;DHT22;39709;53.334;6.534;2022-08-25T13:31:56;30.30;99.90
53802;DHT22;39709;53.334;6.534;2022-08-25T13:34:27;30.30;99.90
53802;DHT22;39709;53.334;6.534;2022-08-25T13:36:54;30.40;99.90
53802;DHT22;39709;53.334;6.534;2022-08-25T13:39:39;30.50;99.90
53802;DHT22;39709;53.334;6.534;2022-08-25T13:42:11;30.40;99.90
53802;DHT22;39709;53.334;6.534;2022-08-25T13:44:38;30.50;99.90
53802;DHT22;39709;53.334;6.534;2022-08-25T13:47:19;30.50;99.90
53802;DHT22;39709;53.334;6.534;2022-08-25T13:52:50;30.40;99.90
53802;DHT22;39709;53.334;6.534;2022-08-25T13:55:27;30.50;99.90
53802;DHT22;39709;53.334;6.534;2022-08-25T13:57:57;30.40;99.90
53802;DHT22;39709;53.334;6.534;2022-08-25T14:02:54;30.50;99.90
53802;DHT22;39709;53.334;6.534;2022-08-25T14:05:37;30.60;99.90
53802;DHT22;39709;53.334;6.534;2022-08-25T14:08:05;30.60;99.90
53802;DHT22;39709;53.334;6.534;2022-08-25T14:10:40;30.70;99.90
53802;DHT22;39709;53.334;6.534;2022-08-25T14:13:29;30.70;99.90
53802;DHT22;39709;53.334;6.534;2022-08-25T14:16:06;30.70;99.90
53802;DHT22;39709;53.334;6.534;2022-08-25T14:18:33;30.90;99.90
53802;DHT22;39709;53.334;6.534;2022-08-25T14:21:02;30.80;99.90
53802;DHT22;39709;53.334;6.534;2022-08-25T14:23:36;30.70;99.90
53802;DHT22;39709;53.334;6.534;2022-08-25T14:26:02;30.90;99.90
53802;DHT22;39709;53.334;6.534;2022-08-25T14:28:29;31.00;99.90
53802;DHT22;39709;53.334;6.534;2022-08-25T14:31:09;31.00;99.90
53802;DHT22;39709;53.334;6.534;2022-08-25T14:33:47;31.10;99.90
53802;DHT22;39709;53.334;6.534;2022-08-25T14:36:14;31.00;99.90
53802;DHT22;39709;53.334;6.534;2022-08-25T14:38:39;31.00;99.90
53802;DHT22;39709;53.334;6.534;2022-08-25T14:41:05;31.20;99.90
53802;DHT22;39709;53.334;6.534;2022-08-25T14:43:32;31.10;99.90
53802;DHT22;39709;53.334;6.534;2022-08-25T14:46:08;31.10;99.90
53802;DHT22;39709;53.334;6.534;2022-08-25T14:48:40;31.20;99.90
53802;DHT22;39709;53.334;6.534;2022-08-25T14:51:07;31.20;99.90
53802;DHT22;39709;53.334;6.534;2022-08-25T14:53:34;31.30;99.90
53802;DHT22;39709;53.334;6.534;2022-08-25T14:56:00;31.30;99.90
53802;DHT22;39709;53.334;6.534;2022-08-25T14:58:26;31.40;99.90
53802;DHT22;39709;53.334;6.534;2022-08-25T15:00:53;31.40;99.90
53802;DHT22;39709;53.334;6.534;2022-08-25T15:03:39;31.40;99.90
53802;DHT22;39709;53.334;6.534;2022-08-25T15:06:08;31.40;99.90
53802;DHT22;39709;53.334;6.534;2022-08-25T15:08:35;31.40;99.90
53802;DHT22;39709;53.334;6.534;2022-08-25T15:11:19;31.40;99.90
53802;DHT22;39709;53.334;6.534;2022-08-25T15:13:45;31.60;99.90
53802;DHT22;39709;53.334;6.534;2022-08-25T15:16:38;31.60;99.90
53802;DHT22;39709;53.334;6.534;2022-08-25T15:19:07;31.50;99.90
53802;DHT22;39709;53.334;6.534;2022-08-25T15:21:35;31.50;99.90
53802;DHT22;39709;53.334;6.534;2022-08-25T15:24:05;31.40;99.90
53802;DHT22;39709;53.334;6.534;2022-08-25T15:26:34;31.40;99.90
53802;DHT22;39709;53.334;6.534;2022-08-25T15:29:02;31.50;99.90
53802;DHT22;39709;53.334;6.534;2022-08-25T15:31:27;31.40;99.90
53802;DHT22;39709;53.334;6.534;2022-08-25T15:33:53;31.50;99.90
53802;DHT22;39709;53.334;6.534;2022-08-25T15:36:22;31.60;99.90
53802;DHT22;39709;53.334;6.534;2022-08-25T15:38:48;31.70;99.90
53802;DHT22;39709;53.334;6.534;2022-08-25T15:41:14;31.70;99.90
53802;DHT22;39709;53.334;6.534;2022-08-25T15:43:39;31.80;99.90
53802;DHT22;39709;53.334;6.534;2022-08-25T15:46:08;31.90;99.90
53802;DHT22;39709;53.334;6.534;2022-08-25T15:48:34;32.00;99.90
53802;DHT22;39709;53.334;6.534;2022-08-25T15:51:00;32.00;99.90
53802;DHT22;39709;53.334;6.534;2022-08-25T15:53:27;32.00;99.90
53802;DHT22;39709;53.334;6.534;2022-08-25T15:55:54;31.90;99.90
53802;DHT22;39709;53.334;6.534;2022-08-25T15:58:22;31.90;99.90
53802;DHT22;39709;53.334;6.534;2022-08-25T16:00:48;31.90;99.90
53802;DHT22;39709;53.334;6.534;2022-08-25T16:03:14;32.10;99.90
53802;DHT22;39709;53.334;6.534;2022-08-25T16:05:41;32.10;99.90
53802;DHT22;39709;53.334;6.534;2022-08-25T16:08:07;32.30;99.90
53802;DHT22;39709;53.334;6.534;2022-08-25T16:10:35;32.50;99.90
53802;DHT22;39709;53.334;6.534;2022-08-25T16:13:01;32.40;99.90
53802;DHT22;39709;53.334;6.534;2022-08-25T16:15:27;32.40;99.90
53802;DHT22;39709;53.334;6.534;2022-08-25T16:17:53;32.60;99.90
53802;DHT22;39709;53.334;6.534;2022-08-25T16:20:19;32.70;99.90
53802;DHT22;39709;53.334;6.534;2022-08-25T16:22:47;32.80;99.90
53802;DHT22;39709;53.334;6.534;2022-08-25T16:25:13;32.80;99.90
53802;DHT22;39709;53.334;6.534;2022-08-25T16:27:39;32.90;99.90
53802;DHT22;39709;53.334;6.534;2022-08-25T16:30:07;33.00;99.90
53802;DHT22;39709;53.334;6.534;2022-08-25T16:32:33;33.10;99.90
53802;DHT22;39709;53.334;6.534;2022-08-25T16:34:59;33.10;99.90
53802;DHT22;39709;53.334;6.534;2022-08-25T16:37:24;33.20;99.90
53802;DHT22;39709;53.334;6.534;2022-08-25T16:39:55;33.30;99.90
53802;DHT22;39709;53.334;6.534;2022-08-25T16:42:21;33.30;99.90
53802;DHT22;39709;53.334;6.534;2022-08-25T16:44:47;33.30;99.90
53802;DHT22;39709;53.334;6.534;2022-08-25T16:47:12;33.50;99.90
53802;DHT22;39709;53.334;6.534;2022-08-25T16:49:39;33.60;99.90
53802;DHT22;39709;53.334;6.534;2022-08-25T16:52:07;33.80;99.90
53802;DHT22;39709;53.334;6.534;2022-08-25T16:54:53;33.90;99.90
53802;DHT22;39709;53.334;6.534;2022-08-25T16:57:51;34.00;99.90
53802;DHT22;39709;53.334;6.534;2022-08-25T17:00:23;34.00;99.90
53802;DHT22;39709;53.334;6.534;2022-08-25T17:02:57;34.30;99.90
53802;DHT22;39709;53.334;6.534;2022-08-25T17:05:27;34.40;99.90
53802;DHT22;39709;53.334;6.534;2022-08-25T17:07:54;34.50;99.90
53802;DHT22;39709;53.334;6.534;2022-08-25T17:10:41;34.70;99.90
53802;DHT22;39709;53.334;6.534;2022-08-25T17:13:08;34.90;99.90
53802;DHT22;39709;53.334;6.534;2022-08-25T17:15:37;34.90;99.90
53802;DHT22;39709;53.334;6.534;2022-08-25T17:18:03;35.10;99.90
53802;DHT22;39709;53.334;6.534;2022-08-25T17:20:29;35.20;99.90
53802;DHT22;39709;53.334;6.534;2022-08-25T17:22:55;35.30;99.90
53802;DHT22;39709;53.334;6.534;2022-08-25T17:25:20;35.50;99.90
53802;DHT22;39709;53.334;6.534;2022-08-25T17:27:46;35.60;99.90
53802;DHT22;39709;53.334;6.534;2022-08-25T17:30:12;35.70;99.90
53802;DHT22;39709;53.334;6.534;2022-08-25T17:32:38;35.70;99.90
53802;DHT22;39709;53.334;6.534;2022-08-25T17:35:04;35.50;99.90
53802;DHT22;39709;53.334;6.534;2022-08-25T17:37:29;35.40;99.90
53802;DHT22;39709;53.334;6.534;2022-08-25T17:39:55;35.40;99.90
53802;DHT22;39709;53.334;6.534;2022-08-25T17:42:21;35.30;99.90
53802;DHT22;39709;53.334;6.534;2022-08-25T17:44:46;35.30;99.90
53802;DHT22;39709;53.334;6.534;2022-08-25T17:47:13;35.30;99.90
53802;DHT22;39709;53.334;6.534;2022-08-25T17:49:39;35.20;99.90